sensor_id;sensor_type;location;lat;lon;timestamp;pressure;altitude;pressure_sealevel;temperature
74539;BMP180;66042;51.090;-115.340;2024-03-08T00:00:11;86510.80;;;16.38
74539;BMP180;66042;51.090;-115.340;2024-03-08T00:02:42;86509.00;;;15.34
74539;BMP180;66042;51.090;-115.340;2024-03-08T00:05:09;86511.00;;;14.34
74539;BMP180;66042;51.090;-115.340;2024-03-08T00:07:37;86511.20;;;13.60
74539;BMP180;66042;51.090;-115.340;2024-03-08T00:10:09;86505.80;;;13.00
74539;BMP180;66042;51.090;-115.340;2024-03-08T00:12:42;86504.00;;;12.44
74539;BMP180;66042;51.090;-115.340;2024-03-08T00:15:17;86507.00;;;11.90
74539;BMP180;66042;51.090;-115.340;2024-03-08T00:17:45;86506.80;;;11.06
74539;BMP180;66042;51.090;-115.340;2024-03-08T00:20:12;86508.60;;;10.36
74539;BMP180;66042;51.090;-115.340;2024-03-08T00:22:40;86512.00;;;9.82
74539;BMP180;66042;51.090;-115.340;2024-03-08T00:25:08;86512.80;;;9.36
74539;BMP180;66042;51.090;-115.340;2024-03-08T00:27:36;86517.40;;;8.90
74539;BMP180;66042;51.090;-115.340;2024-03-08T00:30:05;86522.40;;;8.50
74539;BMP180;66042;51.090;-115.340;2024-03-08T00:32:32;86521.40;;;8.12
74539;BMP180;66042;51.090;-115.340;2024-03-08T00:34:59;86522.80;;;7.60
74539;BMP180;66042;51.090;-115.340;2024-03-08T00:37:27;86521.60;;;7.20
74539;BMP180;66042;51.090;-115.340;2024-03-08T00:39:54;86527.80;;;6.86
74539;BMP180;66042;51.090;-115.340;2024-03-08T00:42:21;86532.00;;;6.52
74539;BMP180;66042;51.090;-115.340;2024-03-08T00:44:49;86531.40;;;6.20
74539;BMP180;66042;51.090;-115.340;2024-03-08T00:47:18;86529.80;;;5.78
74539;BMP180;66042;51.090;-115.340;2024-03-08T00:49:45;86536.20;;;5.32
74539;BMP180;66042;51.090;-115.340;2024-03-08T00:52:12;86525.20;;;5.08
74539;BMP180;66042;51.090;-115.340;2024-03-08T00:54:40;86518.80;;;4.62
74539;BMP180;66042;51.090;-115.340;2024-03-08T00:57:07;86523.20;;;4.30
74539;BMP180;66042;51.090;-115.340;2024-03-08T00:59:34;86526.60;;;4.04
74539;BMP180;66042;51.090;-115.340;2024-03-08T01:02:02;86524.00;;;3.80
74539;BMP180;66042;51.090;-115.340;2024-03-08T01:04:29;86524.80;;;3.60
74539;BMP180;66042;51.090;-115.340;2024-03-08T01:06:59;86526.40;;;3.48
74539;BMP180;66042;51.090;-115.340;2024-03-08T01:09:27;86533.60;;;3.10
74539;BMP180;66042;51.090;-115.340;2024-03-08T01:11:57;86539.20;;;2.98
74539;BMP180;66042;51.090;-115.340;2024-03-08T01:14:25;86540.60;;;2.70
74539;BMP180;66042;51.090;-115.340;2024-03-08T01:16:52;86536.60;;;2.60
74539;BMP180;66042;51.090;-115.340;2024-03-08T01:19:20;86532.20;;;2.50
74539;BMP180;66042;51.090;-115.340;2024-03-08T01:21:47;86540.20;;;2.20
74539;BMP180;66042;51.090;-115.340;2024-03-08T01:24:14;86534.80;;;2.02
74539;BMP180;66042;51.090;-115.340;2024-03-08T01:26:41;86532.40;;;1.90
74539;BMP180;66042;51.090;-115.340;2024-03-08T01:29:08;86537.40;;;1.70
74539;BMP180;66042;51.090;-115.340;2024-03-08T01:31:36;86541.80;;;1.50
74539;BMP180;66042;51.090;-115.340;2024-03-08T01:34:02;86545.60;;;1.40
74539;BMP180;66042;51.090;-115.340;2024-03-08T01:36:30;86543.20;;;1.20
74539;BMP180;66042;51.090;-115.340;2024-03-08T01:38:57;86554.80;;;1.00
74539;BMP180;66042;51.090;-115.340;2024-03-08T01:41:24;86553.20;;;0.80
74539;BMP180;66042;51.090;-115.340;2024-03-08T01:43:51;86551.00;;;0.60
74539;BMP180;66042;51.090;-115.340;2024-03-08T01:46:21;86565.40;;;0.38
74539;BMP180;66042;51.090;-115.340;2024-03-08T01:48:51;86567.20;;;0.20
74539;BMP180;66042;51.090;-115.340;2024-03-08T01:51:20;86572.80;;;0.00
74539;BMP180;66042;51.090;-115.340;2024-03-08T01:53:48;86571.60;;;-0.20
74539;BMP180;66042;51.090;-115.340;2024-03-08T01:56:16;86577.00;;;-0.30
74539;BMP180;66042;51.090;-115.340;2024-03-08T01:58:45;86581.20;;;-0.40
74539;BMP180;66042;51.090;-115.340;2024-03-08T02:01:14;86586.40;;;-0.50
74539;BMP180;66042;51.090;-115.340;2024-03-08T02:03:42;86602.20;;;-0.60
74539;BMP180;66042;51.090;-115.340;2024-03-08T02:06:13;86608.60;;;-0.70
74539;BMP180;66042;51.090;-115.340;2024-03-08T02:08:47;86617.80;;;-0.90
74539;BMP180;66042;51.090;-115.340;2024-03-08T02:11:14;86618.60;;;-1.26
74539;BMP180;66042;51.090;-115.340;2024-03-08T02:13:42;86620.20;;;-1.50
74539;BMP180;66042;51.090;-115.340;2024-03-08T02:16:09;86623.80;;;-1.54
74539;BMP180;66042;51.090;-115.340;2024-03-08T02:18:37;86628.40;;;-1.60
74539;BMP180;66042;51.090;-115.340;2024-03-08T02:21:07;86632.80;;;-1.70
74539;BMP180;66042;51.090;-115.340;2024-03-08T02:23:35;86635.60;;;-1.80
74539;BMP180;66042;51.090;-115.340;2024-03-08T02:26:02;86641.00;;;-1.90
74539;BMP180;66042;51.090;-115.340;2024-03-08T02:28:31;86634.60;;;-2.00
74539;BMP180;66042;51.090;-115.340;2024-03-08T02:30:58;86638.20;;;-2.04
74539;BMP180;66042;51.090;-115.340;2024-03-08T02:33:27;86633.60;;;-2.16
74539;BMP180;66042;51.090;-115.340;2024-03-08T02:35:55;86635.60;;;-2.32
74539;BMP180;66042;51.090;-115.340;2024-03-08T02:38:23;86639.40;;;-2.42
74539;BMP180;66042;51.090;-115.340;2024-03-08T02:40:53;86638.60;;;-2.58
74539;BMP180;66042;51.090;-115.340;2024-03-08T02:43:21;86643.20;;;-2.70
74539;BMP180;66042;51.090;-115.340;2024-03-08T02:45:49;86645.00;;;-2.80
74539;BMP180;66042;51.090;-115.340;2024-03-08T02:48:16;86637.80;;;-3.00
74539;BMP180;66042;51.090;-115.340;2024-03-08T02:50:43;86640.80;;;-3.10
74539;BMP180;66042;51.090;-115.340;2024-03-08T02:53:11;86632.40;;;-3.20
74539;BMP180;66042;51.090;-115.340;2024-03-08T02:55:42;86638.20;;;-3.20
74539;BMP180;66042;51.090;-115.340;2024-03-08T02:58:10;86637.00;;;-3.30
74539;BMP180;66042;51.090;-115.340;2024-03-08T03:00:38;86636.80;;;-3.40
74539;BMP180;66042;51.090;-115.340;2024-03-08T03:03:08;86640.20;;;-3.50
74539;BMP180;66042;51.090;-115.340;2024-03-08T03:05:35;86642.60;;;-3.60
74539;BMP180;66042;51.090;-115.340;2024-03-08T03:08:02;86639.60;;;-3.70
74539;BMP180;66042;51.090;-115.340;2024-03-08T03:10:35;86646.20;;;-3.80
74539;BMP180;66042;51.090;-115.340;2024-03-08T03:13:03;86641.40;;;-3.90
74539;BMP180;66042;51.090;-115.340;2024-03-08T03:15:31;86646.20;;;-4.00
74539;BMP180;66042;51.090;-115.340;2024-03-08T03:17:58;86645.40;;;-4.10
74539;BMP180;66042;51.090;-115.340;2024-03-08T03:20:25;86652.40;;;-4.20
74539;BMP180;66042;51.090;-115.340;2024-03-08T03:22:54;86654.00;;;-4.20
74539;BMP180;66042;51.090;-115.340;2024-03-08T03:25:23;86657.60;;;-4.30
74539;BMP180;66042;51.090;-115.340;2024-03-08T03:27:53;86659.20;;;-4.40
74539;BMP180;66042;51.090;-115.340;2024-03-08T03:30:24;86656.40;;;-4.50
74539;BMP180;66042;51.090;-115.340;2024-03-08T03:32:53;86650.40;;;-4.60
74539;BMP180;66042;51.090;-115.340;2024-03-08T03:35:28;86643.00;;;-4.70
74539;BMP180;66042;51.090;-115.340;2024-03-08T03:37:56;86640.00;;;-4.80
74539;BMP180;66042;51.090;-115.340;2024-03-08T03:40:49;86645.60;;;-4.80
74539;BMP180;66042;51.090;-115.340;2024-03-08T03:43:19;86640.20;;;-4.90
74539;BMP180;66042;51.090;-115.340;2024-03-08T03:45:46;86635.20;;;-5.00
74539;BMP180;66042;51.090;-115.340;2024-03-08T03:48:12;86650.20;;;-5.06
74539;BMP180;66042;51.090;-115.340;2024-03-08T03:50:40;86651.00;;;-5.18
74539;BMP180;66042;51.090;-115.340;2024-03-08T03:53:07;86649.60;;;-5.20
74539;BMP180;66042;51.090;-115.340;2024-03-08T03:55:35;86650.40;;;-5.20
74539;BMP180;66042;51.090;-115.340;2024-03-08T03:58:03;86650.20;;;-5.30
74539;BMP180;66042;51.090;-115.340;2024-03-08T04:00:30;86654.60;;;-5.40
74539;BMP180;66042;51.090;-115.340;2024-03-08T04:02:58;86656.20;;;-5.40
74539;BMP180;66042;51.090;-115.340;2024-03-08T04:05:26;86670.20;;;-5.56
74539;BMP180;66042;51.090;-115.340;2024-03-08T04:07:54;86671.40;;;-5.60
74539;BMP180;66042;51.090;-115.340;2024-03-08T04:10:20;86667.00;;;-5.70
74539;BMP180;66042;51.090;-115.340;2024-03-08T04:12:47;86667.80;;;-5.80
74539;BMP180;66042;51.090;-115.340;2024-03-08T04:15:14;86670.00;;;-5.90
74539;BMP180;66042;51.090;-115.340;2024-03-08T04:17:41;86681.60;;;-6.10
74539;BMP180;66042;51.090;-115.340;2024-03-08T04:20:09;86677.20;;;-6.22
74539;BMP180;66042;51.090;-115.340;2024-03-08T04:22:39;86677.20;;;-6.40
74539;BMP180;66042;51.090;-115.340;2024-03-08T04:25:07;86674.60;;;-6.60
74539;BMP180;66042;51.090;-115.340;2024-03-08T04:27:36;86680.20;;;-6.68
74539;BMP180;66042;51.090;-115.340;2024-03-08T04:30:04;86682.60;;;-6.70
74539;BMP180;66042;51.090;-115.340;2024-03-08T04:32:34;86694.60;;;-6.70
74539;BMP180;66042;51.090;-115.340;2024-03-08T04:35:01;86697.00;;;-6.68
74539;BMP180;66042;51.090;-115.340;2024-03-08T04:37:29;86696.60;;;-6.60
74539;BMP180;66042;51.090;-115.340;2024-03-08T04:39:57;86694.80;;;-6.60
74539;BMP180;66042;51.090;-115.340;2024-03-08T04:42:28;86694.00;;;-6.60
74539;BMP180;66042;51.090;-115.340;2024-03-08T04:44:56;86696.60;;;-6.70
74539;BMP180;66042;51.090;-115.340;2024-03-08T04:47:23;86690.80;;;-6.60
74539;BMP180;66042;51.090;-115.340;2024-03-08T04:49:51;86689.60;;;-6.60
74539;BMP180;66042;51.090;-115.340;2024-03-08T04:52:18;86689.80;;;-6.60
74539;BMP180;66042;51.090;-115.340;2024-03-08T04:54:45;86689.80;;;-6.60
74539;BMP180;66042;51.090;-115.340;2024-03-08T04:57:12;86691.60;;;-6.70
74539;BMP180;66042;51.090;-115.340;2024-03-08T04:59:39;86687.20;;;-6.62
74539;BMP180;66042;51.090;-115.340;2024-03-08T05:02:07;86687.60;;;-6.60
74539;BMP180;66042;51.090;-115.340;2024-03-08T05:04:34;86689.00;;;-6.60
74539;BMP180;66042;51.090;-115.340;2024-03-08T05:07:01;86689.20;;;-6.60
74539;BMP180;66042;51.090;-115.340;2024-03-08T05:09:28;86689.40;;;-6.60
74539;BMP180;66042;51.090;-115.340;2024-03-08T05:11:58;86689.80;;;-6.60
74539;BMP180;66042;51.090;-115.340;2024-03-08T05:14:25;86691.60;;;-6.70
74539;BMP180;66042;51.090;-115.340;2024-03-08T05:16:53;86697.40;;;-6.80
74539;BMP180;66042;51.090;-115.340;2024-03-08T05:19:21;86695.20;;;-6.80
74539;BMP180;66042;51.090;-115.340;2024-03-08T05:21:49;86694.20;;;-6.78
74539;BMP180;66042;51.090;-115.340;2024-03-08T05:24:17;86692.40;;;-6.80
74539;BMP180;66042;51.090;-115.340;2024-03-08T05:26:44;86696.40;;;-6.80
74539;BMP180;66042;51.090;-115.340;2024-03-08T05:29:12;86700.60;;;-6.80
74539;BMP180;66042;51.090;-115.340;2024-03-08T05:31:52;86700.80;;;-6.80
74539;BMP180;66042;51.090;-115.340;2024-03-08T05:34:20;86700.00;;;-6.90
74539;BMP180;66042;51.090;-115.340;2024-03-08T05:36:49;86698.80;;;-6.90
74539;BMP180;66042;51.090;-115.340;2024-03-08T05:39:18;86701.60;;;-6.90
74539;BMP180;66042;51.090;-115.340;2024-03-08T05:41:46;86701.20;;;-6.90
74539;BMP180;66042;51.090;-115.340;2024-03-08T05:44:14;86703.20;;;-6.96
74539;BMP180;66042;51.090;-115.340;2024-03-08T05:46:41;86695.20;;;-7.00
74539;BMP180;66042;51.090;-115.340;2024-03-08T05:49:08;86702.40;;;-7.00
74539;BMP180;66042;51.090;-115.340;2024-03-08T05:51:40;86701.00;;;-7.00
74539;BMP180;66042;51.090;-115.340;2024-03-08T05:54:10;86701.00;;;-7.00
74539;BMP180;66042;51.090;-115.340;2024-03-08T05:56:39;86695.60;;;-7.10
74539;BMP180;66042;51.090;-115.340;2024-03-08T05:59:12;86695.60;;;-7.20
74539;BMP180;66042;51.090;-115.340;2024-03-08T06:01:39;86684.60;;;-7.28
74539;BMP180;66042;51.090;-115.340;2024-03-08T06:04:07;86687.00;;;-7.30
74539;BMP180;66042;51.090;-115.340;2024-03-08T06:06:35;86688.00;;;-7.30
74539;BMP180;66042;51.090;-115.340;2024-03-08T06:09:04;86680.40;;;-7.30
74539;BMP180;66042;51.090;-115.340;2024-03-08T06:11:44;86683.00;;;-7.30
74539;BMP180;66042;51.090;-115.340;2024-03-08T06:14:11;86690.40;;;-7.30
74539;BMP180;66042;51.090;-115.340;2024-03-08T06:16:38;86682.60;;;-7.36
74539;BMP180;66042;51.090;-115.340;2024-03-08T06:19:05;86685.40;;;-7.40
74539;BMP180;66042;51.090;-115.340;2024-03-08T06:21:32;86681.00;;;-7.40
74539;BMP180;66042;51.090;-115.340;2024-03-08T06:23:59;86684.20;;;-7.40
74539;BMP180;66042;51.090;-115.340;2024-03-08T06:26:27;86682.60;;;-7.32
74539;BMP180;66042;51.090;-115.340;2024-03-08T06:28:58;86683.40;;;-7.30
74539;BMP180;66042;51.090;-115.340;2024-03-08T06:31:25;86687.00;;;-7.20
74539;BMP180;66042;51.090;-115.340;2024-03-08T06:33:52;86682.20;;;-7.20
74539;BMP180;66042;51.090;-115.340;2024-03-08T06:36:21;86687.60;;;-7.20
74539;BMP180;66042;51.090;-115.340;2024-03-08T06:38:51;86682.60;;;-7.30
74539;BMP180;66042;51.090;-115.340;2024-03-08T06:41:18;86682.60;;;-7.30
74539;BMP180;66042;51.090;-115.340;2024-03-08T06:43:47;86677.00;;;-7.34
74539;BMP180;66042;51.090;-115.340;2024-03-08T06:46:18;86676.20;;;-7.40
74539;BMP180;66042;51.090;-115.340;2024-03-08T06:48:47;86678.20;;;-7.42
74539;BMP180;66042;51.090;-115.340;2024-03-08T06:51:15;86680.80;;;-7.46
74539;BMP180;66042;51.090;-115.340;2024-03-08T06:53:43;86676.80;;;-7.48
74539;BMP180;66042;51.090;-115.340;2024-03-08T06:56:10;86666.00;;;-7.60
74539;BMP180;66042;51.090;-115.340;2024-03-08T06:58:37;86671.60;;;-7.60
74539;BMP180;66042;51.090;-115.340;2024-03-08T07:01:04;86680.80;;;-7.60
74539;BMP180;66042;51.090;-115.340;2024-03-08T07:03:33;86674.80;;;-7.60
74539;BMP180;66042;51.090;-115.340;2024-03-08T07:06:00;86668.60;;;-7.70
74539;BMP180;66042;51.090;-115.340;2024-03-08T07:08:34;86672.60;;;-7.60
74539;BMP180;66042;51.090;-115.340;2024-03-08T07:11:01;86668.20;;;-7.52
74539;BMP180;66042;51.090;-115.340;2024-03-08T07:13:28;86673.80;;;-7.50
74539;BMP180;66042;51.090;-115.340;2024-03-08T07:15:56;86665.60;;;-7.50
74539;BMP180;66042;51.090;-115.340;2024-03-08T07:18:23;86673.00;;;-7.50
74539;BMP180;66042;51.090;-115.340;2024-03-08T07:20:51;86674.60;;;-7.50
74539;BMP180;66042;51.090;-115.340;2024-03-08T07:23:20;86667.80;;;-7.50
74539;BMP180;66042;51.090;-115.340;2024-03-08T07:26:16;86672.80;;;-7.60
74539;BMP180;66042;51.090;-115.340;2024-03-08T07:28:45;86672.80;;;-7.72
74539;BMP180;66042;51.090;-115.340;2024-03-08T07:31:12;86666.20;;;-7.80
74539;BMP180;66042;51.090;-115.340;2024-03-08T07:33:39;86674.80;;;-7.86
74539;BMP180;66042;51.090;-115.340;2024-03-08T07:36:06;86668.00;;;-7.90
74539;BMP180;66042;51.090;-115.340;2024-03-08T07:38:35;86667.00;;;-7.90
74539;BMP180;66042;51.090;-115.340;2024-03-08T07:41:01;86667.20;;;-7.90
74539;BMP180;66042;51.090;-115.340;2024-03-08T07:43:29;86669.20;;;-8.00
74539;BMP180;66042;51.090;-115.340;2024-03-08T07:45:56;86673.20;;;-8.00
74539;BMP180;66042;51.090;-115.340;2024-03-08T07:48:23;86676.60;;;-8.02
74539;BMP180;66042;51.090;-115.340;2024-03-08T07:50:51;86683.20;;;-8.10
74539;BMP180;66042;51.090;-115.340;2024-03-08T07:53:17;86673.80;;;-8.10
74539;BMP180;66042;51.090;-115.340;2024-03-08T07:55:45;86670.20;;;-8.12
74539;BMP180;66042;51.090;-115.340;2024-03-08T07:58:12;86676.80;;;-8.20
74539;BMP180;66042;51.090;-115.340;2024-03-08T08:00:40;86669.00;;;-8.20
74539;BMP180;66042;51.090;-115.340;2024-03-08T08:03:09;86676.40;;;-8.20
74539;BMP180;66042;51.090;-115.340;2024-03-08T08:05:36;86680.80;;;-8.20
74539;BMP180;66042;51.090;-115.340;2024-03-08T08:08:07;86676.20;;;-8.30
74539;BMP180;66042;51.090;-115.340;2024-03-08T08:10:37;86680.40;;;-8.50
74539;BMP180;66042;51.090;-115.340;2024-03-08T08:13:04;86678.60;;;-8.54
74539;BMP180;66042;51.090;-115.340;2024-03-08T08:15:32;86673.20;;;-8.70
74539;BMP180;66042;51.090;-115.340;2024-03-08T08:18:01;86672.20;;;-8.70
74539;BMP180;66042;51.090;-115.340;2024-03-08T08:20:29;86669.80;;;-8.62
74539;BMP180;66042;51.090;-115.340;2024-03-08T08:22:56;86661.80;;;-8.60
74539;BMP180;66042;51.090;-115.340;2024-03-08T08:25:25;86670.60;;;-8.60
74539;BMP180;66042;51.090;-115.340;2024-03-08T08:27:52;86672.60;;;-8.60
74539;BMP180;66042;51.090;-115.340;2024-03-08T08:30:20;86677.60;;;-8.60
74539;BMP180;66042;51.090;-115.340;2024-03-08T08:32:47;86684.40;;;-8.54
74539;BMP180;66042;51.090;-115.340;2024-03-08T08:35:15;86678.80;;;-8.50
74539;BMP180;66042;51.090;-115.340;2024-03-08T08:37:42;86672.60;;;-8.50
74539;BMP180;66042;51.090;-115.340;2024-03-08T08:40:11;86677.00;;;-8.50
74539;BMP180;66042;51.090;-115.340;2024-03-08T08:42:41;86676.80;;;-8.60
74539;BMP180;66042;51.090;-115.340;2024-03-08T08:45:09;86664.80;;;-8.60
74539;BMP180;66042;51.090;-115.340;2024-03-08T08:47:37;86671.00;;;-8.68
74539;BMP180;66042;51.090;-115.340;2024-03-08T08:50:05;86668.00;;;-8.70
74539;BMP180;66042;51.090;-115.340;2024-03-08T08:52:32;86674.60;;;-8.66
74539;BMP180;66042;51.090;-115.340;2024-03-08T08:55:01;86673.40;;;-8.70
74539;BMP180;66042;51.090;-115.340;2024-03-08T08:57:30;86675.80;;;-8.80
74539;BMP180;66042;51.090;-115.340;2024-03-08T08:59:59;86665.40;;;-8.88
74539;BMP180;66042;51.090;-115.340;2024-03-08T09:02:27;86672.00;;;-8.90
74539;BMP180;66042;51.090;-115.340;2024-03-08T09:04:54;86672.40;;;-8.90
74539;BMP180;66042;51.090;-115.340;2024-03-08T09:07:21;86668.20;;;-9.00
74539;BMP180;66042;51.090;-115.340;2024-03-08T09:09:49;86675.80;;;-9.00
74539;BMP180;66042;51.090;-115.340;2024-03-08T09:12:15;86676.60;;;-9.08
74539;BMP180;66042;51.090;-115.340;2024-03-08T09:14:43;86666.20;;;-9.10
74539;BMP180;66042;51.090;-115.340;2024-03-08T09:17:11;86674.40;;;-9.10
74539;BMP180;66042;51.090;-115.340;2024-03-08T09:19:38;86683.00;;;-9.10
74539;BMP180;66042;51.090;-115.340;2024-03-08T09:22:06;86674.80;;;-9.10
74539;BMP180;66042;51.090;-115.340;2024-03-08T09:24:33;86687.20;;;-9.10
74539;BMP180;66042;51.090;-115.340;2024-03-08T09:27:00;86688.00;;;-9.10
74539;BMP180;66042;51.090;-115.340;2024-03-08T09:29:28;86679.60;;;-9.10
74539;BMP180;66042;51.090;-115.340;2024-03-08T09:31:55;86685.00;;;-9.04
74539;BMP180;66042;51.090;-115.340;2024-03-08T09:34:22;86681.40;;;-9.00
74539;BMP180;66042;51.090;-115.340;2024-03-08T09:36:50;86685.80;;;-9.08
74539;BMP180;66042;51.090;-115.340;2024-03-08T09:39:19;86677.20;;;-9.10
74539;BMP180;66042;51.090;-115.340;2024-03-08T09:41:47;86679.20;;;-9.00
74539;BMP180;66042;51.090;-115.340;2024-03-08T09:44:16;86669.00;;;-9.00
74539;BMP180;66042;51.090;-115.340;2024-03-08T09:46:44;86662.20;;;-9.00
74539;BMP180;66042;51.090;-115.340;2024-03-08T09:49:14;86662.40;;;-9.00
74539;BMP180;66042;51.090;-115.340;2024-03-08T09:51:41;86669.20;;;-9.00
74539;BMP180;66042;51.090;-115.340;2024-03-08T09:54:08;86662.00;;;-8.90
74539;BMP180;66042;51.090;-115.340;2024-03-08T09:56:40;86658.80;;;-8.98
74539;BMP180;66042;51.090;-115.340;2024-03-08T09:59:08;86654.20;;;-8.94
74539;BMP180;66042;51.090;-115.340;2024-03-08T10:01:51;86661.60;;;-8.98
74539;BMP180;66042;51.090;-115.340;2024-03-08T10:04:25;86650.60;;;-9.00
74539;BMP180;66042;51.090;-115.340;2024-03-08T10:06:54;86656.60;;;-9.00
74539;BMP180;66042;51.090;-115.340;2024-03-08T10:09:23;86648.20;;;-9.10
74539;BMP180;66042;51.090;-115.340;2024-03-08T10:11:57;86656.60;;;-9.10
74539;BMP180;66042;51.090;-115.340;2024-03-08T10:14:25;86639.60;;;-9.10
74539;BMP180;66042;51.090;-115.340;2024-03-08T10:16:57;86651.60;;;-9.20
74539;BMP180;66042;51.090;-115.340;2024-03-08T10:19:27;86644.60;;;-9.20
74539;BMP180;66042;51.090;-115.340;2024-03-08T10:21:57;86657.20;;;-9.20
74539;BMP180;66042;51.090;-115.340;2024-03-08T10:24:25;86648.60;;;-9.20
74539;BMP180;66042;51.090;-115.340;2024-03-08T10:27:02;86652.60;;;-9.20
74539;BMP180;66042;51.090;-115.340;2024-03-08T10:29:32;86637.00;;;-9.20
74539;BMP180;66042;51.090;-115.340;2024-03-08T10:31:59;86643.60;;;-9.28
74539;BMP180;66042;51.090;-115.340;2024-03-08T10:34:28;86639.60;;;-9.30
74539;BMP180;66042;51.090;-115.340;2024-03-08T10:37:04;86630.60;;;-9.30
74539;BMP180;66042;51.090;-115.340;2024-03-08T10:39:41;86637.80;;;-9.30
74539;BMP180;66042;51.090;-115.340;2024-03-08T10:42:16;86647.20;;;-9.30
74539;BMP180;66042;51.090;-115.340;2024-03-08T10:45:15;86648.40;;;-9.30
74539;BMP180;66042;51.090;-115.340;2024-03-08T10:47:57;86645.60;;;-9.30
74539;BMP180;66042;51.090;-115.340;2024-03-08T10:50:27;86645.80;;;-9.30
74539;BMP180;66042;51.090;-115.340;2024-03-08T10:52:58;86651.80;;;-9.30
74539;BMP180;66042;51.090;-115.340;2024-03-08T10:55:29;86664.80;;;-9.30
74539;BMP180;66042;51.090;-115.340;2024-03-08T10:57:57;86659.80;;;-9.30
74539;BMP180;66042;51.090;-115.340;2024-03-08T11:00:24;86673.40;;;-9.30
74539;BMP180;66042;51.090;-115.340;2024-03-08T11:02:54;86652.60;;;-9.30
74539;BMP180;66042;51.090;-115.340;2024-03-08T11:05:38;86674.20;;;-9.30
74539;BMP180;66042;51.090;-115.340;2024-03-08T11:08:21;86665.20;;;-9.30
74539;BMP180;66042;51.090;-115.340;2024-03-08T11:10:55;86672.20;;;-9.30
74539;BMP180;66042;51.090;-115.340;2024-03-08T11:13:42;86662.60;;;-9.30
74539;BMP180;66042;51.090;-115.340;2024-03-08T11:21:37;86668.40;;;-9.26
74539;BMP180;66042;51.090;-115.340;2024-03-08T11:24:13;86659.60;;;-9.28
74539;BMP180;66042;51.090;-115.340;2024-03-08T11:26:41;86657.80;;;-9.30
74539;BMP180;66042;51.090;-115.340;2024-03-08T11:32:27;86662.80;;;-9.22
74539;BMP180;66042;51.090;-115.340;2024-03-08T11:34:56;86664.80;;;-9.20
74539;BMP180;66042;51.090;-115.340;2024-03-08T11:37:29;86662.60;;;-9.20
74539;BMP180;66042;51.090;-115.340;2024-03-08T11:39:56;86672.00;;;-9.20
74539;BMP180;66042;51.090;-115.340;2024-03-08T11:42:25;86660.60;;;-9.30
74539;BMP180;66042;51.090;-115.340;2024-03-08T11:44:53;86670.20;;;-9.22
74539;BMP180;66042;51.090;-115.340;2024-03-08T11:47:22;86660.80;;;-9.20
74539;BMP180;66042;51.090;-115.340;2024-03-08T11:49:49;86659.00;;;-9.20
74539;BMP180;66042;51.090;-115.340;2024-03-08T11:52:18;86673.60;;;-9.20
74539;BMP180;66042;51.090;-115.340;2024-03-08T11:54:55;86662.60;;;-9.20
74539;BMP180;66042;51.090;-115.340;2024-03-08T11:57:24;86669.60;;;-9.20
74539;BMP180;66042;51.090;-115.340;2024-03-08T11:59:56;86647.00;;;-9.20
74539;BMP180;66042;51.090;-115.340;2024-03-08T12:02:36;86655.80;;;-9.20
74539;BMP180;66042;51.090;-115.340;2024-03-08T12:05:05;86650.80;;;-9.20
74539;BMP180;66042;51.090;-115.340;2024-03-08T12:07:43;86650.80;;;-9.10
74539;BMP180;66042;51.090;-115.340;2024-03-08T12:10:21;86654.40;;;-9.00
74539;BMP180;66042;51.090;-115.340;2024-03-08T12:12:51;86652.00;;;-8.90
74539;BMP180;66042;51.090;-115.340;2024-03-08T12:15:22;86663.00;;;-8.86
74539;BMP180;66042;51.090;-115.340;2024-03-08T12:17:52;86657.80;;;-8.80
74539;BMP180;66042;51.090;-115.340;2024-03-08T12:20:26;86660.20;;;-8.70
74539;BMP180;66042;51.090;-115.340;2024-03-08T12:22:57;86654.20;;;-8.70
74539;BMP180;66042;51.090;-115.340;2024-03-08T12:25:31;86653.00;;;-8.64
74539;BMP180;66042;51.090;-115.340;2024-03-08T12:28:12;86653.00;;;-8.60
74539;BMP180;66042;51.090;-115.340;2024-03-08T12:30:53;86665.80;;;-8.50
74539;BMP180;66042;51.090;-115.340;2024-03-08T12:33:22;86655.00;;;-8.48
74539;BMP180;66042;51.090;-115.340;2024-03-08T12:35:54;86649.60;;;-8.40
74539;BMP180;66042;51.090;-115.340;2024-03-08T12:38:22;86660.00;;;-8.40
74539;BMP180;66042;51.090;-115.340;2024-03-08T12:40:58;86648.00;;;-8.40
74539;BMP180;66042;51.090;-115.340;2024-03-08T12:43:26;86651.80;;;-8.40
74539;BMP180;66042;51.090;-115.340;2024-03-08T12:45:56;86630.60;;;-8.30
74539;BMP180;66042;51.090;-115.340;2024-03-08T12:48:23;86639.40;;;-8.30
74539;BMP180;66042;51.090;-115.340;2024-03-08T12:50:51;86646.80;;;-8.20
74539;BMP180;66042;51.090;-115.340;2024-03-08T12:53:21;86655.40;;;-8.20
74539;BMP180;66042;51.090;-115.340;2024-03-08T12:55:49;86651.00;;;-8.10
74539;BMP180;66042;51.090;-115.340;2024-03-08T12:58:16;86656.20;;;-8.00
74539;BMP180;66042;51.090;-115.340;2024-03-08T13:00:44;86648.80;;;-8.00
74539;BMP180;66042;51.090;-115.340;2024-03-08T13:03:11;86655.00;;;-8.00
74539;BMP180;66042;51.090;-115.340;2024-03-08T13:05:38;86655.00;;;-7.96
74539;BMP180;66042;51.090;-115.340;2024-03-08T13:08:09;86662.60;;;-7.90
74539;BMP180;66042;51.090;-115.340;2024-03-08T13:10:42;86656.80;;;-7.90
74539;BMP180;66042;51.090;-115.340;2024-03-08T13:13:12;86648.00;;;-7.90
74539;BMP180;66042;51.090;-115.340;2024-03-08T13:15:43;86669.80;;;-7.90
74539;BMP180;66042;51.090;-115.340;2024-03-08T13:18:10;86655.40;;;-7.88
74539;BMP180;66042;51.090;-115.340;2024-03-08T13:20:37;86671.20;;;-7.80
74539;BMP180;66042;51.090;-115.340;2024-03-08T13:23:05;86665.60;;;-7.70
74539;BMP180;66042;51.090;-115.340;2024-03-08T13:25:33;86661.00;;;-7.70
74539;BMP180;66042;51.090;-115.340;2024-03-08T13:28:00;86673.20;;;-7.70
74539;BMP180;66042;51.090;-115.340;2024-03-08T13:30:27;86658.80;;;-7.64
74539;BMP180;66042;51.090;-115.340;2024-03-08T13:32:54;86662.40;;;-7.70
74539;BMP180;66042;51.090;-115.340;2024-03-08T13:35:22;86664.80;;;-7.70
74539;BMP180;66042;51.090;-115.340;2024-03-08T13:37:53;86665.00;;;-7.70
74539;BMP180;66042;51.090;-115.340;2024-03-08T13:40:20;86668.20;;;-7.80
74539;BMP180;66042;51.090;-115.340;2024-03-08T13:42:48;86671.60;;;-7.80
74539;BMP180;66042;51.090;-115.340;2024-03-08T13:45:16;86678.80;;;-7.80
74539;BMP180;66042;51.090;-115.340;2024-03-08T13:47:54;86677.20;;;-7.80
74539;BMP180;66042;51.090;-115.340;2024-03-08T13:50:21;86680.20;;;-7.80
74539;BMP180;66042;51.090;-115.340;2024-03-08T13:52:50;86691.60;;;-7.70